sensor_id;sensor_type;location;lat;lon;timestamp;temperature;humidity
46440;DHT22;32138;50.966;6.968;2023-08-07T00:01:07;14.40;99.90
46440;DHT22;32138;50.966;6.968;2023-08-07T00:02:38;14.30;99.90
46440;DHT22;32138;50.966;6.968;2023-08-07T00:04:09;14.40;99.90
46440;DHT22;32138;50.966;6.968;2023-08-07T00:05:40;14.40;99.90
46440;DHT22;32138;50.966;6.968;2023-08-07T00:07:11;14.40;99.90
46440;DHT22;32138;50.966;6.968;2023-08-07T00:08:41;14.10;99.90
46440;DHT22;32138;50.966;6.968;2023-08-07T00:10:12;14.20;99.90
46440;DHT22;32138;50.966;6.968;2023-08-07T00:11:43;14.10;99.90
46440;DHT22;32138;50.966;6.968;2023-08-07T00:13:14;14.10;99.90
46440;DHT22;32138;50.966;6.968;2023-08-07T00:14:47;14.10;99.90
46440;DHT22;32138;50.966;6.968;2023-08-07T00:16:20;14.20;99.90
46440;DHT22;32138;50.966;6.968;2023-08-07T00:17:51;14.20;99.90
46440;DHT22;32138;50.966;6.968;2023-08-07T00:19:22;14.20;99.90
46440;DHT22;32138;50.966;6.968;2023-08-07T00:20:53;14.20;99.90
46440;DHT22;32138;50.966;6.968;2023-08-07T00:22:23;14.20;99.90
46440;DHT22;32138;50.966;6.968;2023-08-07T00:23:55;14.10;99.90
46440;DHT22;32138;50.966;6.968;2023-08-07T00:25:26;14.00;99.90
46440;DHT22;32138;50.966;6.968;2023-08-07T00:26:57;14.00;99.90
46440;DHT22;32138;50.966;6.968;2023-08-07T00:28:31;14.10;99.90
46440;DHT22;32138;50.966;6.968;2023-08-07T00:30:02;14.10;99.90
46440;DHT22;32138;50.966;6.968;2023-08-07T00:31:33;14.20;99.90
46440;DHT22;32138;50.966;6.968;2023-08-07T00:33:04;14.20;99.90
46440;DHT22;32138;50.966;6.968;2023-08-07T00:34:34;14.30;99.90
46440;DHT22;32138;50.966;6.968;2023-08-07T00:36:05;14.00;99.90
46440;DHT22;32138;50.966;6.968;2023-08-07T00:37:39;14.10;99.90
46440;DHT22;32138;50.966;6.968;2023-08-07T00:39:10;14.10;99.90
46440;DHT22;32138;50.966;6.968;2023-08-07T00:40:41;14.00;99.90
46440;DHT22;32138;50.966;6.968;2023-08-07T00:42:12;13.90;99.90
46440;DHT22;32138;50.966;6.968;2023-08-07T00:43:42;14.00;99.90
46440;DHT22;32138;50.966;6.968;2023-08-07T00:45:13;14.00;99.90
46440;DHT22;32138;50.966;6.968;2023-08-07T00:46:44;13.90;99.90
46440;DHT22;32138;50.966;6.968;2023-08-07T00:48:16;14.00;99.90
46440;DHT22;32138;50.966;6.968;2023-08-07T00:49:48;14.00;99.90
46440;DHT22;32138;50.966;6.968;2023-08-07T00:51:20;14.00;99.90
46440;DHT22;32138;50.966;6.968;2023-08-07T00:52:51;14.00;99.90
46440;DHT22;32138;50.966;6.968;2023-08-07T00:54:22;14.00;99.90
46440;DHT22;32138;50.966;6.968;2023-08-07T00:55:53;14.00;99.90
46440;DHT22;32138;50.966;6.968;2023-08-07T00:57:24;14.00;99.90
46440;DHT22;32138;50.966;6.968;2023-08-07T00:58:56;14.00;99.90
46440;DHT22;32138;50.966;6.968;2023-08-07T01:00:29;14.00;99.90
46440;DHT22;32138;50.966;6.968;2023-08-07T01:02:00;13.90;99.90
46440;DHT22;32138;50.966;6.968;2023-08-07T01:03:31;14.00;99.90
46440;DHT22;32138;50.966;6.968;2023-08-07T01:05:02;14.00;99.90
46440;DHT22;32138;50.966;6.968;2023-08-07T01:06:33;14.00;99.90
46440;DHT22;32138;50.966;6.968;2023-08-07T01:08:03;13.90;99.90
46440;DHT22;32138;50.966;6.968;2023-08-07T01:09:34;14.00;99.90
46440;DHT22;32138;50.966;6.968;2023-08-07T01:11:39;13.90;99.90
46440;DHT22;32138;50.966;6.968;2023-08-07T01:13:34;14.00;99.90
46440;DHT22;32138;50.966;6.968;2023-08-07T01:15:12;13.90;99.90
46440;DHT22;32138;50.966;6.968;2023-08-07T01:16:50;13.90;99.90
46440;DHT22;32138;50.966;6.968;2023-08-07T01:18:23;13.90;99.90
46440;DHT22;32138;50.966;6.968;2023-08-07T01:19:55;14.00;99.90
46440;DHT22;32138;50.966;6.968;2023-08-07T01:21:27;13.90;99.90
46440;DHT22;32138;50.966;6.968;2023-08-07T01:23:01;13.70;99.90
46440;DHT22;32138;50.966;6.968;2023-08-07T01:24:32;13.90;99.90
46440;DHT22;32138;50.966;6.968;2023-08-07T01:26:04;14.00;99.90
46440;DHT22;32138;50.966;6.968;2023-08-07T01:27:46;14.00;99.90
46440;DHT22;32138;50.966;6.968;2023-08-07T01:29:34;14.00;99.90
46440;DHT22;32138;50.966;6.968;2023-08-07T01:31:12;14.00;99.90
46440;DHT22;32138;50.966;6.968;2023-08-07T01:33:02;13.90;99.90
46440;DHT22;32138;50.966;6.968;2023-08-07T01:34:35;13.90;99.90
46440;DHT22;32138;50.966;6.968;2023-08-07T01:36:07;14.00;99.90
46440;DHT22;32138;50.966;6.968;2023-08-07T01:37:41;14.00;99.90
46440;DHT22;32138;50.966;6.968;2023-08-07T01:39:13;13.90;99.90
46440;DHT22;32138;50.966;6.968;2023-08-07T01:40:44;14.00;99.90
46440;DHT22;32138;50.966;6.968;2023-08-07T01:42:15;14.00;99.90
46440;DHT22;32138;50.966;6.968;2023-08-07T01:43:46;14.00;99.90
46440;DHT22;32138;50.966;6.968;2023-08-07T01:45:24;13.90;99.90
46440;DHT22;32138;50.966;6.968;2023-08-07T01:46:56;14.00;99.90
46440;DHT22;32138;50.966;6.968;2023-08-07T01:48:27;14.00;99.90
46440;DHT22;32138;50.966;6.968;2023-08-07T01:49:58;14.00;99.90
46440;DHT22;32138;50.966;6.968;2023-08-07T01:51:28;14.00;99.90
46440;DHT22;32138;50.966;6.968;2023-08-07T01:52:59;14.00;99.90
46440;DHT22;32138;50.966;6.968;2023-08-07T01:54:32;13.80;99.90
46440;DHT22;32138;50.966;6.968;2023-08-07T01:56:03;13.80;99.90
46440;DHT22;32138;50.966;6.968;2023-08-07T01:57:34;13.90;99.90
46440;DHT22;32138;50.966;6.968;2023-08-07T01:59:05;13.90;99.90
46440;DHT22;32138;50.966;6.968;2023-08-07T02:00:35;14.00;99.90
46440;DHT22;32138;50.966;6.968;2023-08-07T02:02:09;14.00;99.90
46440;DHT22;32138;50.966;6.968;2023-08-07T02:03:40;13.90;99.90
46440;DHT22;32138;50.966;6.968;2023-08-07T02:05:11;14.00;99.90
46440;DHT22;32138;50.966;6.968;2023-08-07T02:06:41;14.10;99.90
46440;DHT22;32138;50.966;6.968;2023-08-07T02:08:12;14.10;99.90
46440;DHT22;32138;50.966;6.968;2023-08-07T02:09:44;14.10;99.90
46440;DHT22;32138;50.966;6.968;2023-08-07T02:11:15;14.00;99.90
46440;DHT22;32138;50.966;6.968;2023-08-07T02:12:46;13.80;99.90
46440;DHT22;32138;50.966;6.968;2023-08-07T02:14:17;13.90;99.90
46440;DHT22;32138;50.966;6.968;2023-08-07T02:15:47;14.00;99.90
46440;DHT22;32138;50.966;6.968;2023-08-07T02:17:20;14.10;99.90
46440;DHT22;32138;50.966;6.968;2023-08-07T02:18:52;14.20;99.90
46440;DHT22;32138;50.966;6.968;2023-08-07T02:20:23;14.10;99.90
46440;DHT22;32138;50.966;6.968;2023-08-07T02:21:54;14.10;99.90
46440;DHT22;32138;50.966;6.968;2023-08-07T02:23:25;14.10;99.90
46440;DHT22;32138;50.966;6.968;2023-08-07T02:24:55;14.10;99.90
46440;DHT22;32138;50.966;6.968;2023-08-07T02:26:26;14.10;99.90
46440;DHT22;32138;50.966;6.968;2023-08-07T02:27:57;14.10;99.90
46440;DHT22;32138;50.966;6.968;2023-08-07T02:29:28;14.00;99.90
46440;DHT22;32138;50.966;6.968;2023-08-07T02:31:00;14.00;99.90
46440;DHT22;32138;50.966;6.968;2023-08-07T02:32:31;13.90;99.90
46440;DHT22;32138;50.966;6.968;2023-08-07T02:34:01;14.00;99.90
46440;DHT22;32138;50.966;6.968;2023-08-07T02:35:32;14.10;99.90
46440;DHT22;32138;50.966;6.968;2023-08-07T02:37:03;14.10;99.90
46440;DHT22;32138;50.966;6.968;2023-08-07T02:38:34;14.10;99.90
46440;DHT22;32138;50.966;6.968;2023-08-07T02:40:05;14.00;99.90
46440;DHT22;32138;50.966;6.968;2023-08-07T02:41:36;14.00;99.90
46440;DHT22;32138;50.966;6.968;2023-08-07T02:43:07;13.90;99.90
46440;DHT22;32138;50.966;6.968;2023-08-07T02:44:38;13.90;99.90
46440;DHT22;32138;50.966;6.968;2023-08-07T02:46:08;13.80;99.90
46440;DHT22;32138;50.966;6.968;2023-08-07T02:47:39;13.80;99.90
46440;DHT22;32138;50.966;6.968;2023-08-07T02:49:10;13.80;99.90
46440;DHT22;32138;50.966;6.968;2023-08-07T02:50:41;13.90;99.90
46440;DHT22;32138;50.966;6.968;2023-08-07T02:52:11;13.90;99.90
46440;DHT22;32138;50.966;6.968;2023-08-07T02:53:42;13.70;99.90
46440;DHT22;32138;50.966;6.968;2023-08-07T02:55:13;13.70;99.90
46440;DHT22;32138;50.966;6.968;2023-08-07T02:56:43;13.80;99.90
46440;DHT22;32138;50.966;6.968;2023-08-07T02:58:14;13.80;99.90
46440;DHT22;32138;50.966;6.968;2023-08-07T02:59:45;13.80;99.90
46440;DHT22;32138;50.966;6.968;2023-08-07T03:01:16;13.80;99.90
46440;DHT22;32138;50.966;6.968;2023-08-07T03:02:46;13.80;99.90
46440;DHT22;32138;50.966;6.968;2023-08-07T03:04:17;13.90;99.90
46440;DHT22;32138;50.966;6.968;2023-08-07T03:05:49;13.80;99.90
46440;DHT22;32138;50.966;6.968;2023-08-07T03:07:20;13.70;99.90
46440;DHT22;32138;50.966;6.968;2023-08-07T03:08:51;13.80;99.90
46440;DHT22;32138;50.966;6.968;2023-08-07T03:10:22;13.80;99.90
46440;DHT22;32138;50.966;6.968;2023-08-07T03:11:53;13.80;99.90
46440;DHT22;32138;50.966;6.968;2023-08-07T03:13:25;13.80;99.90
46440;DHT22;32138;50.966;6.968;2023-08-07T03:14:56;13.80;99.90
46440;DHT22;32138;50.966;6.968;2023-08-07T03:16:27;13.80;99.90
46440;DHT22;32138;50.966;6.968;2023-08-07T03:17:57;13.80;99.90
46440;DHT22;32138;50.966;6.968;2023-08-07T03:19:28;13.80;99.90
46440;DHT22;32138;50.966;6.968;2023-08-07T03:20:59;13.70;99.90
46440;DHT22;32138;50.966;6.968;2023-08-07T03:22:30;13.70;99.90
46440;DHT22;32138;50.966;6.968;2023-08-07T03:24:00;13.60;99.90
46440;DHT22;32138;50.966;6.968;2023-08-07T03:25:31;13.60;99.90
46440;DHT22;32138;50.966;6.968;2023-08-07T03:27:02;13.60;99.90
46440;DHT22;32138;50.966;6.968;2023-08-07T03:28:34;13.60;99.90
46440;DHT22;32138;50.966;6.968;2023-08-07T03:30:06;13.60;99.90
46440;DHT22;32138;50.966;6.968;2023-08-07T03:31:37;13.70;99.90
46440;DHT22;32138;50.966;6.968;2023-08-07T03:33:08;13.60;99.90
46440;DHT22;32138;50.966;6.968;2023-08-07T03:34:38;13.60;99.90
46440;DHT22;32138;50.966;6.968;2023-08-07T03:36:09;13.70;99.90
46440;DHT22;32138;50.966;6.968;2023-08-07T03:37:40;13.60;99.90
46440;DHT22;32138;50.966;6.968;2023-08-07T03:39:10;13.60;99.90
46440;DHT22;32138;50.966;6.968;2023-08-07T03:40:42;13.60;99.90
46440;DHT22;32138;50.966;6.968;2023-08-07T03:42:13;13.60;99.90
46440;DHT22;32138;50.966;6.968;2023-08-07T03:43:45;13.70;99.90
46440;DHT22;32138;50.966;6.968;2023-08-07T03:45:16;13.70;99.90
46440;DHT22;32138;50.966;6.968;2023-08-07T03:46:47;13.70;99.90
46440;DHT22;32138;50.966;6.968;2023-08-07T03:48:17;13.50;99.90
46440;DHT22;32138;50.966;6.968;2023-08-07T03:49:49;13.60;99.90
46440;DHT22;32138;50.966;6.968;2023-08-07T03:51:20;13.60;99.90
46440;DHT22;32138;50.966;6.968;2023-08-07T03:52:50;13.60;99.90
46440;DHT22;32138;50.966;6.968;2023-08-07T03:54:21;13.70;99.90
46440;DHT22;32138;50.966;6.968;2023-08-07T03:55:52;13.60;99.90
46440;DHT22;32138;50.966;6.968;2023-08-07T03:57:22;13.60;99.90
46440;DHT22;32138;50.966;6.968;2023-08-07T03:58:53;13.60;99.90
46440;DHT22;32138;50.966;6.968;2023-08-07T04:00:24;13.60;99.90
46440;DHT22;32138;50.966;6.968;2023-08-07T04:01:55;13.60;99.90
46440;DHT22;32138;50.966;6.968;2023-08-07T04:03:25;13.60;99.90
46440;DHT22;32138;50.966;6.968;2023-08-07T04:04:56;13.70;99.90
46440;DHT22;32138;50.966;6.968;2023-08-07T04:06:27;13.70;99.90
46440;DHT22;32138;50.966;6.968;2023-08-07T04:07:59;13.80;99.90
46440;DHT22;32138;50.966;6.968;2023-08-07T04:09:29;13.80;99.90
46440;DHT22;32138;50.966;6.968;2023-08-07T04:11:01;13.80;99.90
46440;DHT22;32138;50.966;6.968;2023-08-07T04:12:33;13.80;99.90
46440;DHT22;32138;50.966;6.968;2023-08-07T04:14:04;13.80;99.90
46440;DHT22;32138;50.966;6.968;2023-08-07T04:15:35;13.80;99.90
46440;DHT22;32138;50.966;6.968;2023-08-07T04:17:06;13.70;99.90
46440;DHT22;32138;50.966;6.968;2023-08-07T04:18:37;13.70;99.90
46440;DHT22;32138;50.966;6.968;2023-08-07T04:20:08;13.70;99.90
46440;DHT22;32138;50.966;6.968;2023-08-07T04:21:39;13.70;99.90
46440;DHT22;32138;50.966;6.968;2023-08-07T04:23:10;13.70;99.90
46440;DHT22;32138;50.966;6.968;2023-08-07T04:24:40;13.80;99.90
46440;DHT22;32138;50.966;6.968;2023-08-07T04:26:11;13.70;99.90
46440;DHT22;32138;50.966;6.968;2023-08-07T04:27:42;13.70;99.90
46440;DHT22;32138;50.966;6.968;2023-08-07T04:29:13;13.60;99.90
46440;DHT22;32138;50.966;6.968;2023-08-07T04:30:44;13.80;99.90
46440;DHT22;32138;50.966;6.968;2023-08-07T04:32:15;13.80;99.90
46440;DHT22;32138;50.966;6.968;2023-08-07T04:33:46;13.70;99.90
46440;DHT22;32138;50.966;6.968;2023-08-07T04:35:17;13.70;99.90
46440;DHT22;32138;50.966;6.968;2023-08-07T04:36:48;13.60;99.90
46440;DHT22;32138;50.966;6.968;2023-08-07T04:38:20;13.70;99.90
46440;DHT22;32138;50.966;6.968;2023-08-07T04:39:51;13.60;99.90
46440;DHT22;32138;50.966;6.968;2023-08-07T04:41:22;13.70;99.90
46440;DHT22;32138;50.966;6.968;2023-08-07T04:42:53;13.70;99.90
46440;DHT22;32138;50.966;6.968;2023-08-07T04:44:24;13.70;99.90
46440;DHT22;32138;50.966;6.968;2023-08-07T04:45:54;13.70;99.90
46440;DHT22;32138;50.966;6.968;2023-08-07T04:47:27;13.70;99.90
46440;DHT22;32138;50.966;6.968;2023-08-07T04:48:58;13.60;99.90
46440;DHT22;32138;50.966;6.968;2023-08-07T04:50:31;13.70;99.90
46440;DHT22;32138;50.966;6.968;2023-08-07T04:52:02;13.70;99.90
46440;DHT22;32138;50.966;6.968;2023-08-07T04:53:32;13.80;99.90
46440;DHT22;32138;50.966;6.968;2023-08-07T04:55:04;13.80;99.90
46440;DHT22;32138;50.966;6.968;2023-08-07T04:56:35;13.90;99.90
46440;DHT22;32138;50.966;6.968;2023-08-07T04:58:06;13.80;99.90
46440;DHT22;32138;50.966;6.968;2023-08-07T04:59:37;13.80;99.90
46440;DHT22;32138;50.966;6.968;2023-08-07T05:01:07;13.80;99.90
46440;DHT22;32138;50.966;6.968;2023-08-07T05:02:39;13.80;99.90
46440;DHT22;32138;50.966;6.968;2023-08-07T05:04:10;13.80;99.90
46440;DHT22;32138;50.966;6.968;2023-08-07T05:05:40;13.70;99.90
46440;DHT22;32138;50.966;6.968;2023-08-07T05:07:11;13.70;99.90
46440;DHT22;32138;50.966;6.968;2023-08-07T05:08:42;13.80;99.90
46440;DHT22;32138;50.966;6.968;2023-08-07T05:10:13;13.90;99.90
46440;DHT22;32138;50.966;6.968;2023-08-07T05:11:44;13.80;99.90
46440;DHT22;32138;50.966;6.968;2023-08-07T05:13:15;13.70;99.90
46440;DHT22;32138;50.966;6.968;2023-08-07T05:14:45;13.70;99.90
46440;DHT22;32138;50.966;6.968;2023-08-07T05:16:16;13.60;99.90
46440;DHT22;32138;50.966;6.968;2023-08-07T05:17:50;13.70;99.90
46440;DHT22;32138;50.966;6.968;2023-08-07T05:19:21;13.70;99.90
46440;DHT22;32138;50.966;6.968;2023-08-07T05:20:52;13.70;99.90
46440;DHT22;32138;50.966;6.968;2023-08-07T05:22:22;13.80;99.90
46440;DHT22;32138;50.966;6.968;2023-08-07T05:23:53;13.80;99.90
46440;DHT22;32138;50.966;6.968;2023-08-07T05:25:25;13.80;99.90
46440;DHT22;32138;50.966;6.968;2023-08-07T05:26:56;13.70;99.90
46440;DHT22;32138;50.966;6.968;2023-08-07T05:28:27;13.80;99.90
46440;DHT22;32138;50.966;6.968;2023-08-07T05:29:59;13.70;99.90
46440;DHT22;32138;50.966;6.968;2023-08-07T05:31:29;13.60;99.90
46440;DHT22;32138;50.966;6.968;2023-08-07T05:33:01;13.60;99.90
46440;DHT22;32138;50.966;6.968;2023-08-07T05:34:31;13.80;99.90
46440;DHT22;32138;50.966;6.968;2023-08-07T05:36:02;13.80;99.90
46440;DHT22;32138;50.966;6.968;2023-08-07T05:37:34;13.80;99.90
46440;DHT22;32138;50.966;6.968;2023-08-07T05:39:05;13.80;99.90
46440;DHT22;32138;50.966;6.968;2023-08-07T05:40:36;13.90;99.90
46440;DHT22;32138;50.966;6.968;2023-08-07T05:42:07;13.80;99.90
46440;DHT22;32138;50.966;6.968;2023-08-07T05:43:39;13.80;99.90
46440;DHT22;32138;50.966;6.968;2023-08-07T05:45:10;13.80;99.90
46440;DHT22;32138;50.966;6.968;2023-08-07T05:46:41;13.70;99.90
46440;DHT22;32138;50.966;6.968;2023-08-07T05:48:12;13.70;99.90
46440;DHT22;32138;50.966;6.968;2023-08-07T05:49:42;13.80;99.90
46440;DHT22;32138;50.966;6.968;2023-08-07T05:51:13;13.80;99.90
46440;DHT22;32138;50.966;6.968;2023-08-07T05:52:44;13.90;99.90
46440;DHT22;32138;50.966;6.968;2023-08-07T05:54:15;13.90;99.90
46440;DHT22;32138;50.966;6.968;2023-08-07T05:55:45;13.90;99.90
46440;DHT22;32138;50.966;6.968;2023-08-07T05:57:17;13.90;99.90
46440;DHT22;32138;50.966;6.968;2023-08-07T05:58:48;13.90;99.90
46440;DHT22;32138;50.966;6.968;2023-08-07T06:00:19;13.80;99.90
46440;DHT22;32138;50.966;6.968;2023-08-07T06:01:50;13.80;99.90
46440;DHT22;32138;50.966;6.968;2023-08-07T06:03:21;13.70;99.90
46440;DHT22;32138;50.966;6.968;2023-08-07T06:04:52;13.80;99.90
46440;DHT22;32138;50.966;6.968;2023-08-07T06:06:24;13.80;99.90
46440;DHT22;32138;50.966;6.968;2023-08-07T06:07:55;13.90;99.90
46440;DHT22;32138;50.966;6.968;2023-08-07T06:09:26;13.90;99.90
46440;DHT22;32138;50.966;6.968;2023-08-07T06:10:57;13.90;99.90
46440;DHT22;32138;50.966;6.968;2023-08-07T06:12:27;13.90;99.90
46440;DHT22;32138;50.966;6.968;2023-08-07T06:13:58;13.80;99.90
46440;DHT22;32138;50.966;6.968;2023-08-07T06:15:31;13.70;99.90
46440;DHT22;32138;50.966;6.968;2023-08-07T06:17:02;13.80;99.90
46440;DHT22;32138;50.966;6.968;2023-08-07T06:18:33;13.70;99.90
46440;DHT22;32138;50.966;6.968;2023-08-07T06:20:06;13.70;99.90
46440;DHT22;32138;50.966;6.968;2023-08-07T06:21:39;13.70;99.90
46440;DHT22;32138;50.966;6.968;2023-08-07T06:23:10;13.70;99.90
46440;DHT22;32138;50.966;6.968;2023-08-07T06:24:40;13.60;99.90
46440;DHT22;32138;50.966;6.968;2023-08-07T06:26:11;13.60;99.90
46440;DHT22;32138;50.966;6.968;2023-08-07T06:27:42;13.60;99.90
46440;DHT22;32138;50.966;6.968;2023-08-07T06:29:13;13.50;99.90
46440;DHT22;32138;50.966;6.968;2023-08-07T06:30:43;13.60;99.90
46440;DHT22;32138;50.966;6.968;2023-08-07T06:32:14;13.60;99.90
46440;DHT22;32138;50.966;6.968;2023-08-07T06:33:46;13.60;99.90
46440;DHT22;32138;50.966;6.968;2023-08-07T06:35:17;13.40;99.90
46440;DHT22;32138;50.966;6.968;2023-08-07T06:36:48;13.40;99.90
46440;DHT22;32138;50.966;6.968;2023-08-07T06:38:19;13.50;99.90
46440;DHT22;32138;50.966;6.968;2023-08-07T06:39:51;13.60;99.90
46440;DHT22;32138;50.966;6.968;2023-08-07T06:41:21;13.50;99.90
46440;DHT22;32138;50.966;6.968;2023-08-07T06:42:52;13.30;99.90
46440;DHT22;32138;50.966;6.968;2023-08-07T06:44:24;13.30;99.90
46440;DHT22;32138;50.966;6.968;2023-08-07T06:45:56;13.30;99.90
46440;DHT22;32138;50.966;6.968;2023-08-07T06:47:27;13.40;99.90
46440;DHT22;32138;50.966;6.968;2023-08-07T06:48:58;13.40;99.90
46440;DHT22;32138;50.966;6.968;2023-08-07T06:50:29;13.50;99.90
46440;DHT22;32138;50.966;6.968;2023-08-07T06:51:59;13.50;99.90
46440;DHT22;32138;50.966;6.968;2023-08-07T06:53:30;13.40;99.90
46440;DHT22;32138;50.966;6.968;2023-08-07T06:55:01;13.40;99.90
46440;DHT22;32138;50.966;6.968;2023-08-07T06:56:32;13.40;99.90
46440;DHT22;32138;50.966;6.968;2023-08-07T06:58:03;13.40;99.90
46440;DHT22;32138;50.966;6.968;2023-08-07T06:59:33;13.40;99.90
46440;DHT22;32138;50.966;6.968;2023-08-07T07:01:04;13.50;99.90
46440;DHT22;32138;50.966;6.968;2023-08-07T07:02:35;13.50;99.90
46440;DHT22;32138;50.966;6.968;2023-08-07T07:04:05;13.60;99.90
46440;DHT22;32138;50.966;6.968;2023-08-07T07:05:36;13.60;99.90
46440;DHT22;32138;50.966;6.968;2023-08-07T07:07:07;13.60;99.90
46440;DHT22;32138;50.966;6.968;2023-08-07T07:08:38;13.60;99.90
46440;DHT22;32138;50.966;6.968;2023-08-07T07:10:09;13.50;99.90
46440;DHT22;32138;50.966;6.968;2023-08-07T07:11:39;13.60;99.90
46440;DHT22;32138;50.966;6.968;2023-08-07T07:13:10;13.40;99.90
46440;DHT22;32138;50.966;6.968;2023-08-07T07:14:41;13.50;99.90
46440;DHT22;32138;50.966;6.968;2023-08-07T07:16:12;13.60;99.90
46440;DHT22;32138;50.966;6.968;2023-08-07T07:17:43;13.50;99.90
46440;DHT22;32138;50.966;6.968;2023-08-07T07:19:14;13.50;99.90
46440;DHT22;32138;50.966;6.968;2023-08-07T07:20:44;13.30;99.90
46440;DHT22;32138;50.966;6.968;2023-08-07T07:22:15;13.30;99.90
46440;DHT22;32138;50.966;6.968;2023-08-07T07:23:46;13.40;99.90
46440;DHT22;32138;50.966;6.968;2023-08-07T07:25:17;13.20;99.90
46440;DHT22;32138;50.966;6.968;2023-08-07T07:26:47;13.30;99.90
46440;DHT22;32138;50.966;6.968;2023-08-07T07:28:18;13.30;99.90
46440;DHT22;32138;50.966;6.968;2023-08-07T07:29:50;13.50;99.90
46440;DHT22;32138;50.966;6.968;2023-08-07T07:31:21;13.60;99.90
46440;DHT22;32138;50.966;6.968;2023-08-07T07:32:51;13.60;99.90
46440;DHT22;32138;50.966;6.968;2023-08-07T07:34:22;13.50;99.90
46440;DHT22;32138;50.966;6.968;2023-08-07T07:35:53;13.60;99.90
46440;DHT22;32138;50.966;6.968;2023-08-07T07:37:24;13.80;99.90
46440;DHT22;32138;50.966;6.968;2023-08-07T07:38:54;13.70;99.90
46440;DHT22;32138;50.966;6.968;2023-08-07T07:40:25;13.70;99.90
46440;DHT22;32138;50.966;6.968;2023-08-07T07:41:56;13.70;99.90
46440;DHT22;32138;50.966;6.968;2023-08-07T07:43:26;13.60;99.90
46440;DHT22;32138;50.966;6.968;2023-08-07T07:44:57;13.70;99.90
46440;DHT22;32138;50.966;6.968;2023-08-07T07:46:28;13.70;99.90
46440;DHT22;32138;50.966;6.968;2023-08-07T07:47:59;13.80;99.90
46440;DHT22;32138;50.966;6.968;2023-08-07T07:49:30;13.80;99.90
46440;DHT22;32138;50.966;6.968;2023-08-07T07:51:02;13.80;99.90
46440;DHT22;32138;50.966;6.968;2023-08-07T07:52:33;13.80;99.90
46440;DHT22;32138;50.966;6.968;2023-08-07T07:54:04;13.90;99.90
46440;DHT22;32138;50.966;6.968;2023-08-07T07:55:35;13.90;99.90
46440;DHT22;32138;50.966;6.968;2023-08-07T07:57:05;13.90;99.90
46440;DHT22;32138;50.966;6.968;2023-08-07T07:58:37;14.00;99.90
46440;DHT22;32138;50.966;6.968;2023-08-07T08:00:08;13.90;99.90
46440;DHT22;32138;50.966;6.968;2023-08-07T08:01:40;13.90;99.90
46440;DHT22;32138;50.966;6.968;2023-08-07T08:03:11;13.80;99.90
46440;DHT22;32138;50.966;6.968;2023-08-07T08:04:45;13.80;99.90
46440;DHT22;32138;50.966;6.968;2023-08-07T08:06:16;13.80;99.90
46440;DHT22;32138;50.966;6.968;2023-08-07T08:07:47;14.00;99.90
46440;DHT22;32138;50.966;6.968;2023-08-07T08:09:18;14.00;99.90
46440;DHT22;32138;50.966;6.968;2023-08-07T08:10:49;14.00;99.90
46440;DHT22;32138;50.966;6.968;2023-08-07T08:12:21;14.10;99.90
46440;DHT22;32138;50.966;6.968;2023-08-07T08:13:52;14.20;99.90
46440;DHT22;32138;50.966;6.968;2023-08-07T08:15:23;14.10;99.90
46440;DHT22;32138;50.966;6.968;2023-08-07T08:16:54;14.10;99.90
46440;DHT22;32138;50.966;6.968;2023-08-07T08:18:25;14.20;99.90
46440;DHT22;32138;50.966;6.968;2023-08-07T08:19:56;14.20;99.90
46440;DHT22;32138;50.966;6.968;2023-08-07T08:21:27;14.30;99.90
46440;DHT22;32138;50.966;6.968;2023-08-07T08:22:57;14.20;99.90
46440;DHT22;32138;50.966;6.968;2023-08-07T08:24:28;14.20;99.90
46440;DHT22;32138;50.966;6.968;2023-08-07T08:25:59;14.20;99.90
46440;DHT22;32138;50.966;6.968;2023-08-07T08:27:29;14.20;99.90
46440;DHT22;32138;50.966;6.968;2023-08-07T08:29:00;14.20;99.90
46440;DHT22;32138;50.966;6.968;2023-08-07T08:30:31;14.30;99.90
46440;DHT22;32138;50.966;6.968;2023-08-07T08:32:02;14.30;99.90
46440;DHT22;32138;50.966;6.968;2023-08-07T08:33:33;14.20;99.90
46440;DHT22;32138;50.966;6.968;2023-08-07T08:35:04;14.30;99.90
46440;DHT22;32138;50.966;6.968;2023-08-07T08:36:36;14.30;99.90
46440;DHT22;32138;50.966;6.968;2023-08-07T08:38:06;14.40;99.90
46440;DHT22;32138;50.966;6.968;2023-08-07T08:39:37;14.30;99.90
46440;DHT22;32138;50.966;6.968;2023-08-07T08:41:09;14.30;99.90
46440;DHT22;32138;50.966;6.968;2023-08-07T08:42:40;14.40;99.90
46440;DHT22;32138;50.966;6.968;2023-08-07T08:44:12;14.40;99.90
46440;DHT22;32138;50.966;6.968;2023-08-07T08:45:45;14.50;99.90
46440;DHT22;32138;50.966;6.968;2023-08-07T08:47:16;14.40;99.90
46440;DHT22;32138;50.966;6.968;2023-08-07T08:48:51;14.30;99.90
46440;DHT22;32138;50.966;6.968;2023-08-07T08:50:22;14.30;99.90
46440;DHT22;32138;50.966;6.968;2023-08-07T08:51:53;14.30;99.90
46440;DHT22;32138;50.966;6.968;2023-08-07T08:53:25;14.40;99.90
46440;DHT22;32138;50.966;6.968;2023-08-07T08:54:56;14.50;99.90
46440;DHT22;32138;50.966;6.968;2023-08-07T08:56:27;14.40;99.90
46440;DHT22;32138;50.966;6.968;2023-08-07T08:58:00;14.40;99.90
46440;DHT22;32138;50.966;6.968;2023-08-07T08:59:31;14.50;99.90
46440;DHT22;32138;50.966;6.968;2023-08-07T09:01:02;14.30;99.90
46440;DHT22;32138;50.966;6.968;2023-08-07T09:02:34;14.40;99.90
46440;DHT22;32138;50.966;6.968;2023-08-07T09:04:05;14.40;99.90
46440;DHT22;32138;50.966;6.968;2023-08-07T09:05:37;14.50;99.90
46440;DHT22;32138;50.966;6.968;2023-08-07T09:07:08;14.50;99.90
46440;DHT22;32138;50.966;6.968;2023-08-07T09:08:43;14.50;99.90
46440;DHT22;32138;50.966;6.968;2023-08-07T09:10:15;14.50;99.90
46440;DHT22;32138;50.966;6.968;2023-08-07T09:11:47;14.50;99.90
46440;DHT22;32138;50.966;6.968;2023-08-07T09:13:20;14.50;99.90
46440;DHT22;32138;50.966;6.968;2023-08-07T09:14:56;14.60;99.90
46440;DHT22;32138;50.966;6.968;2023-08-07T09:16:28;14.60;99.90
46440;DHT22;32138;50.966;6.968;2023-08-07T09:18:01;14.70;99.90
46440;DHT22;32138;50.966;6.968;2023-08-07T09:19:34;14.60;99.90
46440;DHT22;32138;50.966;6.968;2023-08-07T09:21:04;14.70;99.90
46440;DHT22;32138;50.966;6.968;2023-08-07T09:22:35;14.70;99.90
46440;DHT22;32138;50.966;6.968;2023-08-07T09:24:06;14.70;99.90
46440;DHT22;32138;50.966;6.968;2023-08-07T09:25:37;14.70;99.90
46440;DHT22;32138;50.966;6.968;2023-08-07T09:27:08;14.70;99.90
46440;DHT22;32138;50.966;6.968;2023-08-07T09:28:40;14.70;99.90
46440;DHT22;32138;50.966;6.968;2023-08-07T09:30:11;14.70;99.90
46440;DHT22;32138;50.966;6.968;2023-08-07T09:31:44;14.70;99.90
46440;DHT22;32138;50.966;6.968;2023-08-07T09:33:24;14.80;99.90
46440;DHT22;32138;50.966;6.968;2023-08-07T09:34:56;14.70;99.90
46440;DHT22;32138;50.966;6.968;2023-08-07T09:36:30;14.80;99.90
46440;DHT22;32138;50.966;6.968;2023-08-07T09:38:01;14.80;99.90